LECO/LCG METAR and TAF weather

Enter ICAO airport designator
Station Type Date Time Source
LECO METAR 2021/05/15 01:00 UTC NOAA

LECO 150100Z AUTO 17006KT 130V210 9999 -RA FEW022 BKN033 15/15 Q1013


Station Type Date Time Source
LECO Decoded METAR 2021/05/15 01:00 UTC NOAA

La Coruna / Alvedro, Spain (LECO) 43-18N 008-23W 103M
May 14, 2021 - 09:00 PM EDT / 2021.05.15 0100 UTC
Wind: from the S (170 degrees) at 7 MPH (6 KT) (direction variable):0
Visibility: greater than 7 mile(s):0
Sky conditions: mostly cloudy
Weather: light rain
Temperature: 59 F (15 C)
Dew Point: 59 F (15 C)
Relative Humidity: 100%
Pressure (altimeter): 29.91 in. Hg (1013 hPa)
ob: LECO 150100Z AUTO 17006KT 130V210 9999 -RA FEW022 BKN033 15/15 Q1013
cycle: 1

Station Type Date Time Source
LECO TAF 2021/05/14 21:29 UTC NOAA

TAF LECO 142000Z 1421/1521 20012KT 9999 SCT020 BKN035 TX16/1513Z TN13/1421Z PROB30
TEMPO 1500/1503 4000 BR BKN010
TEMPO 1503/1521 BKN010 PROB40
TEMPO 1502/1515 3000 RADZ BR BKN005 PROB30
TEMPO 1503/1508 0800 RA BCFG BKN002 PROB40
TEMPO 1508/1512 19016G28KT 1500 RA

Example: see airport list